createdAt,value
2018-12-17T00:00:14.398Z,2.16
2018-12-17T00:01:14.317Z,2.20
2018-12-17T00:02:14.263Z,2.21
2018-12-17T00:03:14.200Z,2.20
2018-12-17T00:04:14.144Z,2.17
2018-12-17T00:05:14.109Z,2.17
2018-12-17T00:06:14.030Z,2.21
2018-12-17T00:07:13.980Z,2.13
2018-12-17T00:08:13.924Z,2.21
2018-12-17T00:09:13.867Z,2.11
2018-12-17T00:10:13.840Z,2.16
2018-12-17T00:11:13.745Z,2.20
2018-12-17T00:12:16.726Z,2.14
2018-12-17T00:13:13.630Z,2.14
2018-12-17T00:14:13.575Z,2.14
2018-12-17T00:15:13.539Z,2.14
2018-12-17T00:16:13.460Z,2.14
2018-12-17T00:17:13.398Z,2.20
2018-12-17T00:18:13.345Z,2.16
2018-12-17T00:19:13.290Z,2.22
2018-12-17T00:20:13.276Z,2.17
2018-12-17T00:21:13.175Z,2.22
2018-12-17T00:22:13.116Z,2.17
2018-12-17T00:23:13.060Z,2.22
2018-12-17T00:24:13.009Z,2.16
2018-12-17T00:25:12.969Z,2.20
2018-12-17T00:26:12.890Z,2.21
2018-12-17T00:27:12.830Z,2.21
2018-12-17T00:28:12.780Z,2.22
2018-12-17T00:29:12.722Z,2.20
2018-12-17T00:30:12.684Z,2.16
2018-12-17T00:31:12.601Z,2.20
2018-12-17T00:32:12.547Z,2.16
2018-12-17T00:33:12.494Z,2.20
2018-12-17T00:34:12.434Z,2.20
2018-12-17T00:35:12.399Z,2.20
2018-12-17T00:36:12.321Z,2.16
2018-12-17T00:37:12.274Z,2.17
2018-12-17T00:38:12.205Z,2.17
2018-12-17T00:39:12.151Z,2.10
2018-12-17T00:40:12.090Z,2.14
2018-12-17T00:41:12.059Z,2.14
2018-12-17T00:42:11.979Z,2.17
2018-12-17T00:43:11.922Z,2.20
2018-12-17T00:44:11.861Z,2.17
2018-12-17T00:45:11.805Z,2.21
2018-12-17T00:46:11.774Z,2.16
2018-12-17T00:47:11.691Z,2.11
2018-12-17T00:48:11.635Z,2.16
2018-12-17T00:49:11.578Z,2.17
2018-12-17T00:50:11.532Z,2.11
2018-12-17T00:51:11.491Z,2.14
2018-12-17T00:52:11.406Z,2.16
2018-12-17T00:53:11.350Z,2.16
2018-12-17T00:54:11.291Z,2.16
2018-12-17T00:55:11.235Z,2.21
2018-12-17T00:56:11.204Z,2.14
2018-12-17T00:57:11.122Z,2.13
2018-12-17T00:58:15.078Z,2.13
2018-12-17T00:59:11.006Z,2.17
2018-12-17T01:00:10.950Z,2.10
2018-12-17T01:01:10.899Z,2.13
2018-12-17T01:02:10.835Z,2.06
2018-12-17T01:03:10.780Z,2.14
2018-12-17T01:04:10.721Z,2.17
2018-12-17T01:05:10.662Z,2.09
2018-12-17T01:06:10.630Z,2.10
2018-12-17T01:07:10.558Z,2.10
2018-12-17T01:08:10.495Z,2.13
2018-12-17T01:09:10.435Z,2.16
2018-12-17T01:10:10.381Z,2.22
2018-12-17T01:11:10.345Z,2.10
2018-12-17T01:12:10.270Z,2.03
2018-12-17T01:13:10.206Z,2.07
2018-12-17T01:14:10.155Z,2.16
2018-12-17T01:15:10.095Z,2.11
2018-12-17T01:16:10.060Z,2.16
2018-12-17T01:17:09.989Z,2.11
2018-12-17T01:18:09.923Z,2.20
2018-12-17T01:19:09.866Z,2.16
2018-12-17T01:20:09.811Z,2.20
2018-12-17T01:21:09.773Z,2.20
2018-12-17T01:22:09.701Z,2.20
2018-12-17T01:23:09.642Z,2.14
2018-12-17T01:24:09.580Z,2.16
2018-12-17T01:25:09.525Z,2.20
2018-12-17T01:26:09.492Z,2.24
2018-12-17T01:27:09.400Z,2.21
2018-12-17T01:28:09.348Z,2.21
2018-12-17T01:29:09.300Z,2.22
2018-12-17T01:30:09.237Z,2.20
2018-12-17T01:31:09.214Z,2.20
2018-12-17T01:32:09.125Z,2.21
2018-12-17T01:33:09.066Z,2.14
2018-12-17T01:34:09.010Z,2.17
2018-12-17T01:35:08.952Z,2.13
2018-12-17T01:36:08.921Z,2.16
2018-12-17T01:37:08.836Z,2.20
2018-12-17T01:38:08.799Z,2.21
2018-12-17T01:39:08.728Z,2.25
2018-12-17T01:40:08.667Z,2.22
2018-12-17T01:41:08.636Z,2.24
2018-12-17T01:42:08.551Z,2.22
2018-12-17T01:43:08.497Z,2.16
2018-12-17T01:44:08.441Z,2.16
2018-12-17T01:45:08.379Z,2.17
2018-12-17T01:46:08.354Z,2.29
2018-12-17T01:47:08.269Z,2.22
2018-12-17T01:48:08.210Z,2.22
2018-12-17T01:49:08.155Z,2.25
2018-12-17T01:50:08.100Z,2.29
2018-12-17T01:51:08.075Z,2.27
2018-12-17T01:52:08.009Z,2.28
2018-12-17T01:53:07.926Z,2.22
2018-12-17T01:54:07.872Z,2.27
2018-12-17T01:55:07.814Z,2.16
2018-12-17T01:56:07.756Z,2.17
2018-12-17T01:57:07.725Z,2.17
2018-12-17T01:58:07.651Z,2.28
2018-12-17T01:59:07.587Z,2.25
2018-12-17T02:00:07.531Z,2.29
2018-12-17T02:01:07.472Z,2.28
2018-12-17T02:02:07.439Z,2.28
2018-12-17T02:03:07.356Z,2.28
2018-12-17T02:04:07.297Z,2.28
2018-12-17T02:05:07.240Z,2.24
2018-12-17T02:06:07.191Z,2.28
2018-12-17T02:07:07.155Z,2.27
2018-12-17T02:08:07.071Z,2.25
2018-12-17T02:09:07.014Z,2.28
2018-12-17T02:10:06.963Z,2.25
2018-12-17T02:11:06.900Z,2.24
2018-12-17T02:12:06.868Z,2.24
2018-12-17T02:13:06.802Z,2.29
2018-12-17T02:14:06.726Z,2.24
2018-12-17T02:15:06.683Z,2.28
2018-12-17T02:16:06.615Z,2.29
2018-12-17T02:17:06.588Z,2.22
2018-12-17T02:18:06.506Z,2.28
2018-12-17T02:19:06.449Z,2.25
2018-12-17T02:20:06.393Z,2.28
2018-12-17T02:21:06.334Z,2.24
2018-12-17T02:22:06.299Z,2.22
2018-12-17T02:23:06.219Z,2.17
2018-12-17T02:24:06.159Z,2.28
2018-12-17T02:25:06.104Z,2.24
2018-12-17T02:26:06.057Z,2.21
2018-12-17T02:27:06.013Z,2.21
2018-12-17T02:28:05.935Z,2.22
2018-12-17T02:29:05.881Z,2.28
2018-12-17T02:30:05.819Z,2.27
2018-12-17T02:31:05.766Z,2.16
2018-12-17T02:32:05.736Z,2.31
2018-12-17T02:33:05.652Z,2.28
2018-12-17T02:34:05.590Z,2.24
2018-12-17T02:35:05.536Z,2.28
2018-12-17T02:36:05.481Z,2.20
2018-12-17T02:37:05.443Z,2.22
2018-12-17T02:38:05.365Z,2.28
2018-12-17T02:39:05.310Z,2.27
2018-12-17T02:40:05.245Z,2.24
2018-12-17T02:41:05.193Z,2.29
2018-12-17T02:42:05.159Z,2.34
2018-12-17T02:43:05.079Z,2.21
2018-12-17T02:44:05.028Z,2.21
2018-12-17T02:45:04.964Z,2.28
2018-12-17T02:46:04.908Z,2.17
2018-12-17T02:47:04.876Z,2.13
2018-12-17T02:48:04.793Z,2.17
2018-12-17T02:49:04.738Z,2.24
2018-12-17T02:50:04.678Z,2.20
2018-12-17T02:51:04.624Z,2.22
2018-12-17T02:52:04.587Z,2.28
2018-12-17T02:53:04.510Z,2.22
2018-12-17T02:54:04.449Z,2.21
2018-12-17T02:55:04.471Z,2.21
2018-12-17T02:56:04.338Z,2.17
2018-12-17T02:57:04.302Z,2.17
2018-12-17T02:58:04.223Z,2.17
2018-12-17T02:59:04.169Z,2.24
2018-12-17T03:00:04.109Z,2.25
2018-12-17T03:01:04.053Z,2.17
2018-12-17T03:02:04.017Z,2.16
2018-12-17T03:03:03.943Z,2.17
2018-12-17T03:04:03.883Z,2.27
2018-12-17T03:05:03.857Z,2.22
2018-12-17T03:06:03.769Z,2.21
2018-12-17T03:07:03.737Z,2.24
2018-12-17T03:08:03.656Z,2.21
2018-12-17T03:09:03.593Z,2.21
2018-12-17T03:10:03.538Z,2.16
2018-12-17T03:11:03.482Z,2.13
2018-12-17T03:12:03.471Z,2.21
2018-12-17T03:13:03.368Z,2.24
2018-12-17T03:14:03.312Z,2.22
2018-12-17T03:15:03.257Z,2.25
2018-12-17T03:16:03.197Z,2.25
2018-12-17T03:17:03.139Z,2.25
2018-12-17T03:18:03.106Z,2.17
2018-12-17T03:19:03.027Z,2.20
2018-12-17T03:20:02.977Z,2.22
2018-12-17T03:21:02.913Z,2.17
2018-12-17T03:22:02.859Z,2.20
2018-12-17T03:23:02.822Z,2.16
2018-12-17T03:24:02.742Z,2.17
2018-12-17T03:25:02.687Z,2.25
2018-12-17T03:26:02.628Z,2.17
2018-12-17T03:27:02.574Z,2.25
2018-12-17T03:28:02.537Z,2.14
2018-12-17T03:29:02.461Z,2.13
2018-12-17T03:30:02.403Z,2.22
2018-12-17T03:31:02.344Z,2.14
2018-12-17T03:32:02.285Z,2.24
2018-12-17T03:33:02.257Z,2.21
2018-12-17T03:34:02.173Z,2.27
2018-12-17T03:35:02.119Z,2.11
2018-12-17T03:36:02.059Z,2.17
2018-12-17T03:37:02.004Z,2.24
2018-12-17T03:38:01.970Z,2.17
2018-12-17T03:39:01.888Z,2.21
2018-12-17T03:40:01.834Z,2.16
2018-12-17T03:41:01.777Z,2.25
2018-12-17T03:42:01.721Z,2.17
2018-12-17T03:43:01.687Z,2.17
2018-12-17T03:44:01.603Z,2.27
2018-12-17T03:45:01.547Z,2.17
2018-12-17T03:46:01.489Z,2.28
2018-12-17T03:47:01.433Z,2.22
2018-12-17T03:48:01.398Z,2.28
2018-12-17T03:49:01.317Z,2.16
2018-12-17T03:50:01.262Z,2.20
2018-12-17T03:51:01.204Z,2.25
2018-12-17T03:52:01.147Z,2.22
2018-12-17T03:53:01.116Z,2.28
2018-12-17T03:54:01.032Z,2.25
2018-12-17T03:55:00.979Z,2.25
2018-12-17T03:56:00.923Z,2.24
2018-12-17T03:57:00.871Z,2.27
2018-12-17T03:58:00.828Z,2.25
2018-12-17T03:59:00.748Z,2.20
2018-12-17T04:00:00.691Z,2.24
2018-12-17T04:01:00.634Z,2.25
2018-12-17T04:02:00.577Z,2.29
2018-12-17T04:03:00.547Z,2.25
2018-12-17T04:04:00.469Z,2.21
2018-12-17T04:05:00.408Z,2.22
2018-12-17T04:06:00.353Z,2.28
2018-12-17T04:07:00.292Z,2.21
2018-12-17T04:08:00.260Z,2.24
2018-12-17T04:09:00.177Z,2.16
2018-12-17T04:10:00.122Z,2.24
2018-12-17T04:11:00.070Z,2.21
2018-12-17T04:12:00.007Z,2.17
2018-12-17T04:12:59.976Z,2.27
2018-12-17T04:13:59.894Z,2.17
2018-12-17T04:14:59.853Z,2.22
2018-12-17T04:15:59.781Z,2.20
2018-12-17T04:16:59.718Z,2.17
2018-12-17T04:17:59.708Z,2.17
2018-12-17T04:18:59.611Z,2.27
2018-12-17T04:19:59.551Z,2.22
2018-12-17T04:20:59.499Z,2.22
2018-12-17T04:21:59.438Z,2.25
2018-12-17T04:22:59.385Z,2.17
2018-12-17T04:23:59.353Z,2.21
2018-12-17T04:24:59.270Z,2.25
2018-12-17T04:25:59.213Z,2.29
2018-12-17T04:26:59.157Z,2.24
2018-12-17T04:27:59.097Z,2.28
2018-12-17T04:29:06.569Z,2.17
2018-12-17T04:29:58.982Z,2.24
2018-12-17T04:30:58.934Z,2.20
2018-12-17T04:31:58.867Z,2.21
2018-12-17T04:32:58.813Z,2.24
2018-12-17T04:33:58.779Z,2.27
2018-12-17T04:34:58.707Z,2.25
2018-12-17T04:35:58.642Z,2.27
2018-12-17T04:36:58.586Z,2.25
2018-12-17T04:37:58.526Z,2.25
2018-12-17T04:38:58.496Z,2.28
2018-12-17T04:39:58.412Z,2.25
2018-12-17T04:40:58.387Z,2.25
2018-12-17T04:41:58.304Z,2.25
2018-12-17T04:42:58.246Z,2.24
2018-12-17T04:43:58.213Z,2.24
2018-12-17T04:44:58.126Z,2.29
2018-12-17T04:45:58.070Z,2.29
2018-12-17T04:46:58.018Z,2.29
2018-12-17T04:47:57.957Z,2.29
2018-12-17T04:48:57.927Z,2.31
2018-12-17T04:49:57.845Z,2.34
2018-12-17T04:50:57.791Z,2.22
2018-12-17T04:51:57.730Z,2.34
2018-12-17T04:52:57.673Z,2.32
2018-12-17T04:53:57.641Z,2.25
2018-12-17T04:54:57.557Z,2.32
2018-12-17T04:55:57.505Z,2.29
2018-12-17T04:56:57.446Z,2.29
2018-12-17T04:57:57.398Z,2.29
2018-12-17T04:58:57.357Z,2.32
2018-12-17T04:59:57.282Z,2.25
2018-12-17T05:00:57.220Z,2.27
2018-12-17T05:01:57.160Z,2.35
2018-12-17T05:02:57.105Z,2.32
2018-12-17T05:03:57.074Z,2.37
2018-12-17T05:04:56.992Z,2.32
2018-12-17T05:05:56.937Z,2.32
2018-12-17T05:06:56.876Z,2.28
2018-12-17T05:07:56.820Z,2.34
2018-12-17T05:08:56.784Z,2.35
2018-12-17T05:09:56.705Z,2.29
2018-12-17T05:10:56.663Z,2.31
2018-12-17T05:11:56.618Z,2.37
2018-12-17T05:12:56.537Z,2.29
2018-12-17T05:13:56.520Z,2.34
2018-12-17T05:14:56.420Z,2.32
2018-12-17T05:15:56.364Z,2.29
2018-12-17T05:16:56.317Z,2.39
2018-12-17T05:17:56.251Z,2.37
2018-12-17T05:18:56.195Z,2.37
2018-12-17T05:19:56.162Z,2.31
2018-12-17T05:20:56.083Z,2.29
2018-12-17T05:21:56.020Z,2.34
2018-12-17T05:22:55.981Z,2.34
2018-12-17T05:23:55.909Z,2.35
2018-12-17T05:24:55.874Z,2.37
2018-12-17T05:25:55.796Z,2.37
2018-12-17T05:26:55.738Z,2.34
2018-12-17T05:27:55.679Z,2.34
2018-12-17T05:28:55.625Z,2.37
2018-12-17T05:29:55.594Z,2.32
2018-12-17T05:30:55.509Z,2.40
2018-12-17T05:31:55.454Z,2.29
2018-12-17T05:32:55.401Z,2.39
2018-12-17T05:33:55.343Z,2.43
2018-12-17T05:34:55.315Z,2.35
2018-12-17T05:35:55.231Z,2.50
2018-12-17T05:36:55.181Z,2.40
2018-12-17T05:37:55.109Z,2.43
2018-12-17T05:38:55.054Z,2.39
2018-12-17T05:39:55.025Z,2.43
2018-12-17T05:40:54.953Z,2.49
2018-12-17T05:41:54.885Z,2.42
2018-12-17T05:42:54.829Z,2.45
2018-12-17T05:43:54.778Z,2.49
2018-12-17T05:44:54.742Z,2.47
2018-12-17T05:45:54.659Z,2.49
2018-12-17T05:46:54.604Z,2.46
2018-12-17T05:47:54.549Z,2.45
2018-12-17T05:48:54.492Z,2.46
2018-12-17T05:49:54.470Z,2.50
2018-12-17T05:50:54.374Z,2.52
2018-12-17T05:51:54.317Z,2.57
2018-12-17T05:52:54.259Z,2.57
2018-12-17T05:53:54.203Z,2.57
2018-12-17T05:54:54.171Z,2.52
2018-12-17T05:55:54.092Z,2.61
2018-12-17T05:56:54.041Z,2.58
2018-12-17T05:57:53.973Z,2.63
2018-12-17T05:58:53.941Z,2.57
2018-12-17T05:59:53.884Z,2.53
2018-12-17T06:00:53.802Z,2.63
2018-12-17T06:01:53.747Z,2.57
2018-12-17T06:02:53.692Z,2.61
2018-12-17T06:03:53.637Z,2.57
2018-12-17T06:04:53.601Z,2.61
2018-12-17T06:05:53.521Z,2.55
2018-12-17T06:06:53.462Z,2.67
2018-12-17T06:07:53.406Z,2.55
2018-12-17T06:08:53.352Z,2.60
2018-12-17T06:09:53.316Z,2.65
2018-12-17T06:10:53.237Z,2.71
2018-12-17T06:11:53.183Z,2.64
2018-12-17T06:12:53.122Z,2.71
2018-12-17T06:13:53.066Z,2.61
2018-12-17T06:14:53.061Z,2.68
2018-12-17T06:15:52.960Z,2.70
2018-12-17T06:16:52.896Z,2.65
2018-12-17T06:17:52.845Z,2.73
2018-12-17T06:18:52.788Z,2.65
2018-12-17T06:19:52.727Z,2.65
2018-12-17T06:20:52.701Z,2.64
2018-12-17T06:21:52.612Z,2.63
2018-12-17T06:22:52.564Z,2.70
2018-12-17T06:23:52.503Z,2.67
2018-12-17T06:24:52.446Z,2.60
2018-12-17T06:25:52.413Z,2.67
2018-12-17T06:26:52.344Z,2.73
2018-12-17T06:27:52.270Z,2.78
2018-12-17T06:28:52.216Z,2.74
2018-12-17T06:29:52.166Z,2.74
2018-12-17T06:30:52.129Z,2.78
2018-12-17T06:31:52.046Z,2.71
2018-12-17T06:32:51.991Z,2.73
2018-12-17T06:33:51.934Z,2.81
2018-12-17T06:34:51.876Z,2.78
2018-12-17T06:35:51.922Z,2.81
2018-12-17T06:36:51.764Z,2.82
2018-12-17T06:37:51.707Z,2.79
2018-12-17T06:38:51.650Z,2.86
2018-12-17T06:39:51.594Z,2.89
2018-12-17T06:40:51.639Z,2.82
2018-12-17T06:41:51.479Z,2.79
2018-12-17T06:42:51.424Z,2.83
2018-12-17T06:43:51.369Z,2.88
2018-12-17T06:44:51.309Z,2.83
2018-12-17T06:45:51.286Z,2.88
2018-12-17T06:46:51.199Z,2.74
2018-12-17T06:47:51.137Z,2.83
2018-12-17T06:48:51.083Z,2.83
2018-12-17T06:49:51.032Z,2.79
2018-12-17T06:50:50.989Z,2.83
2018-12-17T06:51:50.918Z,2.74
2018-12-17T06:52:50.859Z,2.68
2018-12-17T06:53:50.803Z,2.81
2018-12-17T06:54:54.826Z,2.78
2018-12-17T06:55:50.712Z,2.81
2018-12-17T06:56:50.628Z,2.81
2018-12-17T06:57:50.577Z,2.74
2018-12-17T06:58:50.602Z,2.78
2018-12-17T06:59:50.463Z,2.81
2018-12-17T07:00:50.431Z,2.79
2018-12-17T07:01:50.361Z,2.64
2018-12-17T07:02:50.292Z,2.71
2018-12-17T07:03:50.229Z,2.70
2018-12-17T07:04:50.178Z,2.65
2018-12-17T07:05:50.158Z,2.71
2018-12-17T07:06:50.089Z,2.71
2018-12-17T07:07:50.007Z,2.71
2018-12-17T07:08:50.743Z,2.67
2018-12-17T07:09:49.894Z,2.71
2018-12-17T07:10:49.838Z,2.74
2018-12-17T07:11:49.809Z,2.68
2018-12-17T07:12:49.726Z,2.70
2018-12-17T07:13:49.668Z,2.64
2018-12-17T07:14:49.611Z,2.63
2018-12-17T07:15:49.560Z,2.70
2018-12-17T07:16:49.521Z,2.68
2018-12-17T07:17:49.433Z,2.64
2018-12-17T07:18:49.385Z,2.63
2018-12-17T07:19:49.326Z,2.65
2018-12-17T07:20:49.263Z,2.79
2018-12-17T07:21:49.248Z,2.71
2018-12-17T07:22:49.156Z,2.68
2018-12-17T07:23:49.099Z,2.76
2018-12-17T07:24:49.042Z,2.76
2018-12-17T07:25:48.986Z,2.79
2018-12-17T07:26:48.959Z,2.78
2018-12-17T07:27:48.871Z,2.78
2018-12-17T07:28:48.815Z,2.78
2018-12-17T07:29:49.962Z,2.74
2018-12-17T07:30:48.700Z,2.81
2018-12-17T07:31:48.682Z,2.83
2018-12-17T07:32:48.590Z,2.79
2018-12-17T07:33:48.534Z,2.82
2018-12-17T07:34:48.499Z,2.81
2018-12-17T07:35:48.421Z,2.83
2018-12-17T07:36:48.384Z,2.76
2018-12-17T07:37:48.304Z,2.76
2018-12-17T07:38:48.246Z,2.73
2018-12-17T07:39:48.190Z,2.79
2018-12-17T07:40:48.142Z,2.74
2018-12-17T07:41:48.103Z,2.76
2018-12-17T07:42:48.022Z,2.76
2018-12-17T07:43:47.963Z,2.76
2018-12-17T07:44:47.907Z,2.76
2018-12-17T07:45:47.854Z,2.67
2018-12-17T07:46:47.818Z,2.60
2018-12-17T07:47:47.738Z,2.70
2018-12-17T07:48:47.681Z,2.70
2018-12-17T07:49:47.630Z,2.70
2018-12-17T07:50:47.567Z,2.67
2018-12-17T07:51:47.532Z,2.63
2018-12-17T07:52:47.455Z,2.71
2018-12-17T07:53:47.398Z,2.70
2018-12-17T07:54:47.341Z,2.67
2018-12-17T07:55:47.288Z,2.70
2018-12-17T07:56:47.249Z,2.61
2018-12-17T07:57:47.174Z,2.61
2018-12-17T07:58:47.114Z,2.70
2018-12-17T07:59:47.055Z,2.63
2018-12-17T08:00:47.003Z,2.67
2018-12-17T08:01:47.003Z,2.65
2018-12-17T08:02:46.929Z,2.67
2018-12-17T08:03:46.832Z,2.70
2018-12-17T08:04:46.769Z,2.67
2018-12-17T08:05:46.713Z,2.67
2018-12-17T08:06:46.658Z,2.64
2018-12-17T08:07:46.629Z,2.76
2018-12-17T08:08:46.545Z,2.78
2018-12-17T08:09:46.492Z,2.76
2018-12-17T08:10:46.429Z,2.76
2018-12-17T08:11:46.374Z,2.78
2018-12-17T08:12:46.343Z,2.79
2018-12-17T08:13:46.261Z,2.83
2018-12-17T08:14:46.203Z,2.86
2018-12-17T08:15:46.148Z,2.79
2018-12-17T08:16:46.089Z,2.85
2018-12-17T08:17:46.058Z,2.79
2018-12-17T08:18:45.974Z,2.79
2018-12-17T08:19:45.927Z,2.83
2018-12-17T08:20:45.863Z,2.83
2018-12-17T08:21:45.807Z,2.88
2018-12-17T08:22:45.772Z,2.88
2018-12-17T08:23:45.692Z,2.88
2018-12-17T08:24:45.637Z,2.89
2018-12-17T08:25:45.583Z,2.89
2018-12-17T08:26:45.525Z,2.89
2018-12-17T08:27:45.492Z,2.88
2018-12-17T08:28:45.404Z,2.89
2018-12-17T08:29:45.402Z,2.92
2018-12-17T08:30:45.300Z,2.88
2018-12-17T08:31:45.243Z,2.94
2018-12-17T08:32:45.212Z,2.89
2018-12-17T08:33:45.128Z,2.89
2018-12-17T08:34:45.071Z,2.92
2018-12-17T08:35:45.017Z,2.88
2018-12-17T08:36:44.962Z,2.89
2018-12-17T08:37:44.930Z,3.01
2018-12-17T08:38:44.845Z,2.94
2018-12-17T08:39:44.787Z,2.97
2018-12-17T08:40:44.731Z,3.01
2018-12-17T08:41:44.676Z,2.94
2018-12-17T08:42:44.643Z,3.03
2018-12-17T08:43:44.562Z,2.89
2018-12-17T08:44:44.501Z,2.96
2018-12-17T08:45:44.462Z,2.96
2018-12-17T08:46:44.396Z,2.96
2018-12-17T08:47:44.368Z,2.97
2018-12-17T08:48:44.279Z,2.96
2018-12-17T08:49:44.226Z,3.00
2018-12-17T08:50:44.173Z,3.00
2018-12-17T08:51:44.113Z,3.01
2018-12-17T08:52:44.100Z,3.00
2018-12-17T08:53:43.998Z,3.06
2018-12-17T08:54:43.938Z,2.97
2018-12-17T08:55:43.889Z,3.00
2018-12-17T08:56:43.826Z,3.06
2018-12-17T08:57:43.765Z,2.97
2018-12-17T08:58:43.747Z,3.01
2018-12-17T08:59:43.660Z,3.04
2018-12-17T09:00:43.602Z,3.01
2018-12-17T09:01:43.550Z,3.01
2018-12-17T09:02:43.489Z,3.12
2018-12-17T09:03:43.470Z,3.00
2018-12-17T09:04:43.375Z,3.07
2018-12-17T09:05:43.318Z,3.07
2018-12-17T09:06:43.260Z,3.07
2018-12-17T09:07:43.204Z,3.09
2018-12-17T09:08:43.176Z,3.06
2018-12-17T09:09:43.093Z,3.12
2018-12-17T09:10:43.045Z,3.10
2018-12-17T09:11:42.977Z,3.12
2018-12-17T09:12:42.923Z,3.15
2018-12-17T09:13:42.887Z,3.12
2018-12-17T09:14:42.811Z,3.07
2018-12-17T09:15:42.748Z,3.09
2018-12-17T09:16:42.697Z,3.22
2018-12-17T09:17:42.642Z,3.19
2018-12-17T09:18:42.609Z,3.19
2018-12-17T09:19:42.527Z,3.21
2018-12-17T09:20:42.471Z,3.24
2018-12-17T09:21:42.414Z,3.28
2018-12-17T09:22:42.357Z,3.22
2018-12-17T09:23:42.325Z,3.28
2018-12-17T09:24:42.245Z,3.22
2018-12-17T09:25:42.189Z,3.28
2018-12-17T09:26:42.135Z,3.32
2018-12-17T09:27:42.075Z,3.32
2018-12-17T09:28:42.042Z,3.41
2018-12-17T09:29:41.961Z,3.43
2018-12-17T09:30:41.907Z,3.37
2018-12-17T09:31:41.858Z,3.41
2018-12-17T09:32:41.795Z,3.37
2018-12-17T09:33:41.761Z,3.37
2018-12-17T09:34:41.679Z,3.36
2018-12-17T09:35:41.627Z,3.47
2018-12-17T09:36:41.566Z,3.32
2018-12-17T09:37:41.509Z,3.40
2018-12-17T09:38:41.477Z,3.36
2018-12-17T09:39:41.403Z,3.37
2018-12-17T09:40:41.345Z,3.51
2018-12-17T09:41:41.285Z,3.47
2018-12-17T09:42:41.233Z,3.46
2018-12-17T09:43:41.203Z,3.46
2018-12-17T09:44:41.118Z,3.55
2018-12-17T09:45:41.064Z,3.44
2018-12-17T09:46:41.007Z,3.55
2018-12-17T09:47:40.952Z,3.51
2018-12-17T09:48:40.933Z,3.54
2018-12-17T09:49:40.837Z,3.48
2018-12-17T09:50:40.781Z,3.56
2018-12-17T09:51:40.721Z,3.59
2018-12-17T09:52:40.677Z,3.58
2018-12-17T09:53:40.614Z,3.52
2018-12-17T09:54:40.580Z,3.62
2018-12-17T09:55:40.497Z,3.61
2018-12-17T09:56:40.458Z,3.62
2018-12-17T09:57:40.388Z,3.61
2018-12-17T09:58:40.331Z,3.68
2018-12-17T09:59:40.299Z,3.73
2018-12-17T10:00:40.222Z,3.65
2018-12-17T10:01:40.165Z,3.70
2018-12-17T10:02:40.116Z,3.77
2018-12-17T10:03:41.782Z,3.80
2018-12-17T10:04:40.004Z,3.83
2018-12-17T10:05:39.940Z,3.82
2018-12-17T10:06:39.878Z,3.88
2018-12-17T10:07:39.827Z,3.83
2018-12-17T10:08:39.767Z,3.84
2018-12-17T10:09:39.735Z,3.94
2018-12-17T10:10:39.656Z,3.95
2018-12-17T10:11:39.600Z,3.98
2018-12-17T10:12:39.548Z,4.01
2018-12-17T10:13:39.490Z,4.02
2018-12-17T10:14:39.473Z,4.10
2018-12-17T10:15:39.380Z,4.09
2018-12-17T10:16:39.329Z,4.08
2018-12-17T10:17:39.268Z,4.08
2018-12-17T10:18:39.214Z,4.02
2018-12-17T10:19:39.181Z,4.05
2018-12-17T10:20:39.098Z,4.15
2018-12-17T10:21:39.044Z,4.13
2018-12-17T10:22:38.987Z,4.09
2018-12-17T10:23:38.935Z,4.13
2018-12-17T10:24:38.900Z,4.15
2018-12-17T10:25:38.825Z,4.23
2018-12-17T10:26:38.770Z,4.18
2018-12-17T10:27:38.715Z,4.18
2018-12-17T10:28:38.651Z,4.27
2018-12-17T10:29:38.622Z,4.19
2018-12-17T10:30:38.540Z,4.26
2018-12-17T10:31:38.485Z,4.19
2018-12-17T10:32:38.430Z,4.30
2018-12-17T10:33:38.374Z,4.27
2018-12-17T10:34:38.347Z,4.26
2018-12-17T10:35:38.263Z,4.34
2018-12-17T10:36:38.208Z,4.28
2018-12-17T10:37:38.157Z,4.35
2018-12-17T10:38:38.121Z,4.22
2018-12-17T10:39:38.043Z,4.30
2018-12-17T10:40:38.011Z,4.28
2018-12-17T10:41:37.922Z,4.31
2018-12-17T10:42:37.873Z,4.31
2018-12-17T10:43:37.817Z,4.27
2018-12-17T10:44:37.761Z,4.33
2018-12-17T10:45:37.729Z,4.22
2018-12-17T10:46:37.657Z,4.33
2018-12-17T10:47:37.594Z,4.35
2018-12-17T10:48:37.540Z,4.20
2018-12-17T10:49:37.484Z,4.23
2018-12-17T10:50:37.447Z,4.28
2018-12-17T10:51:37.370Z,4.34
2018-12-17T10:52:37.315Z,4.20
2018-12-17T10:53:37.257Z,4.30
2018-12-17T10:54:37.202Z,4.28
2018-12-17T10:55:37.170Z,4.19
2018-12-17T10:56:37.107Z,4.23
2018-12-17T10:57:37.035Z,4.19
2018-12-17T10:58:36.981Z,4.22
2018-12-17T10:59:36.925Z,4.20
2018-12-17T11:00:39.510Z,4.26
2018-12-17T11:01:36.825Z,4.27
2018-12-17T11:02:36.755Z,4.16
2018-12-17T11:03:36.699Z,4.16
2018-12-17T11:04:36.644Z,4.16
2018-12-17T11:05:36.612Z,4.13
2018-12-17T11:06:36.533Z,4.19
2018-12-17T11:07:36.478Z,4.20
2018-12-17T11:08:36.419Z,4.13
2018-12-17T11:09:36.379Z,4.19
2018-12-17T11:10:36.333Z,4.13
2018-12-17T11:11:36.252Z,4.12
2018-12-17T11:12:36.207Z,4.16
2018-12-17T11:13:36.147Z,4.12
2018-12-17T11:14:36.084Z,4.22
2018-12-17T11:15:36.059Z,4.12
2018-12-17T11:16:35.975Z,4.13
2018-12-17T11:17:35.923Z,4.22
2018-12-17T11:18:35.861Z,4.20
2018-12-17T11:19:35.806Z,4.15
2018-12-17T11:20:35.774Z,4.09
2018-12-17T11:21:35.694Z,4.09
2018-12-17T11:22:35.645Z,4.12
2018-12-17T11:23:35.579Z,4.12
2018-12-17T11:24:36.605Z,4.19
2018-12-17T11:25:35.497Z,4.12
2018-12-17T11:26:35.413Z,4.13
2018-12-17T11:27:35.360Z,4.19
2018-12-17T11:28:35.304Z,4.20
2018-12-17T11:29:35.242Z,4.22
2018-12-17T11:30:35.212Z,4.26
2018-12-17T11:31:35.140Z,4.28
2018-12-17T11:32:35.077Z,4.27
2018-12-17T11:33:35.024Z,4.23
2018-12-17T11:34:34.966Z,4.20
2018-12-17T11:35:34.931Z,4.31
2018-12-17T11:36:34.851Z,4.27
2018-12-17T11:37:34.796Z,4.34
2018-12-17T11:38:34.740Z,4.28
2018-12-17T11:39:34.690Z,4.34
2018-12-17T11:40:34.675Z,4.23
2018-12-17T11:41:34.570Z,4.27
2018-12-17T11:42:34.518Z,4.26
2018-12-17T11:43:34.459Z,4.26
2018-12-17T11:44:34.413Z,4.31
2018-12-17T11:45:34.348Z,4.35
2018-12-17T11:46:34.318Z,4.31
2018-12-17T11:47:34.237Z,4.30
2018-12-17T11:48:34.178Z,4.33
2018-12-17T11:49:34.124Z,4.30
2018-12-17T11:50:34.055Z,4.37
2018-12-17T11:51:34.043Z,4.37
2018-12-17T11:52:33.956Z,4.40
2018-12-17T11:53:33.901Z,4.43
2018-12-17T11:54:33.850Z,4.40
2018-12-17T11:55:33.786Z,4.35
2018-12-17T11:56:33.750Z,4.37
2018-12-17T11:57:33.675Z,4.35
2018-12-17T11:58:33.624Z,4.38
2018-12-17T11:59:33.575Z,4.38
2018-12-17T12:00:33.510Z,4.33
2018-12-17T12:01:33.477Z,4.46
2018-12-17T12:02:33.393Z,4.38
2018-12-17T12:03:33.339Z,4.35
2018-12-17T12:04:33.285Z,4.27
2018-12-17T12:05:33.231Z,4.28
2018-12-17T12:06:33.203Z,4.28
2018-12-17T12:07:33.115Z,4.28
2018-12-17T12:08:33.052Z,4.35
2018-12-17T12:09:32.995Z,4.37
2018-12-17T12:10:32.956Z,4.37
2018-12-17T12:11:32.909Z,4.35
2018-12-17T12:12:32.836Z,4.37
2018-12-17T12:13:32.781Z,4.51
2018-12-17T12:14:32.727Z,4.46
2018-12-17T12:15:32.680Z,4.53
2018-12-17T12:16:32.638Z,4.48
2018-12-17T12:17:32.565Z,4.53
2018-12-17T12:18:32.512Z,4.53
2018-12-17T12:19:32.450Z,4.48
2018-12-17T12:20:32.389Z,4.55
2018-12-17T12:21:32.387Z,4.52
2018-12-17T12:22:32.792Z,4.53
2018-12-17T12:23:32.230Z,4.58
2018-12-17T12:24:32.162Z,4.53
2018-12-17T12:25:32.112Z,4.53
2018-12-17T12:26:32.053Z,4.63
2018-12-17T12:27:32.027Z,4.61
2018-12-17T12:28:31.938Z,4.59
2018-12-17T12:29:31.891Z,4.59
2018-12-17T12:30:31.840Z,4.59
2018-12-17T12:31:31.787Z,4.58
2018-12-17T12:32:31.749Z,4.70
2018-12-17T12:33:31.672Z,4.64
2018-12-17T12:34:31.616Z,4.67
2018-12-17T12:35:31.560Z,4.66
2018-12-17T12:36:31.496Z,4.58
2018-12-17T12:37:31.471Z,4.66
2018-12-17T12:38:31.389Z,4.71
2018-12-17T12:39:31.335Z,4.61
2018-12-17T12:40:31.281Z,4.69
2018-12-17T12:41:31.222Z,4.69
2018-12-17T12:42:31.199Z,4.58
2018-12-17T12:43:31.105Z,4.59
2018-12-17T12:44:31.053Z,4.59
2018-12-17T12:45:31.006Z,4.55
2018-12-17T12:46:30.948Z,4.58
2018-12-17T12:47:30.915Z,4.58
2018-12-17T12:48:38.757Z,4.55
2018-12-17T12:49:30.776Z,4.61
2018-12-17T12:50:30.725Z,4.64
2018-12-17T12:51:32.725Z,4.64
2018-12-17T12:52:30.637Z,4.80
2018-12-17T12:53:30.555Z,4.66
2018-12-17T12:54:30.503Z,4.83
2018-12-17T12:55:30.443Z,4.77
2018-12-17T12:56:30.388Z,4.79
2018-12-17T12:57:30.356Z,4.73
2018-12-17T12:58:30.279Z,4.70
2018-12-17T12:59:30.217Z,4.74
2018-12-17T13:00:30.167Z,4.74
2018-12-17T13:01:30.107Z,4.79
2018-12-17T13:02:30.079Z,4.74
2018-12-17T13:03:30.020Z,4.73
2018-12-17T13:04:29.941Z,4.61
2018-12-17T13:05:29.894Z,4.71
2018-12-17T13:06:29.837Z,4.63
2018-12-17T13:07:29.782Z,4.73
2018-12-17T13:08:29.752Z,4.73
2018-12-17T13:09:29.667Z,4.74
2018-12-17T13:10:29.618Z,4.69
2018-12-17T13:11:29.559Z,4.73
2018-12-17T13:12:29.502Z,4.73
2018-12-17T13:13:29.471Z,4.76
2018-12-17T13:14:29.395Z,4.76
2018-12-17T13:15:29.336Z,4.73
2018-12-17T13:16:29.282Z,4.71
2018-12-17T13:17:29.230Z,4.74